Fairview, WY (83119)

7:49 PM MDT on July 31, 2014 (GMT -0600)
KWYAFTON2 Elev 6312 ft | 42.67 °N, 110.94 °W | Change Station

Current weather conditions updated 4 minutes ago

Clear
Clear
75.3 °F
Feels Like 74 °F
N
0.0
Wind Variable Wind from NW

Tomorrow is forecast to be nearly the same temperature as today.

Today
High -- | Low -- °F
--% Chance of Precip.
Yesterday
High -- | Low -- °F
Precip. -- in
6:14 AM 8:45 PM
Waxing Crescent, 22% visible
Pressure 30.23 in
Visibility 10.0 miles
Clouds Clear
Heat Index 74 °F
Dew Point -0 °F
Humidity 5%
Rainfall 0.00 in
Snow Depth 6 in
UV 1 out of 12
Pollen 5.80 out of 12
Air Quality Not available.
Flu Activity Not available.
METAR KAFO 010135Z AUTO 00000KT 10SM CLR 23/05 A3023 RMK AO2

More Conditions Fewer Conditions

Pressure 30.23 in
Visibility 10.0 miles
Clouds Clear
Heat Index 74 °F
Dew Point -0 °F
Humidity 5%
Rainfall 0.00 in
Snow Depth 6 in
UV 1 out of 12
Pollen 5.80 out of 12
Air Quality Not available.
Flu Activity Not available.
METAR KAFO 010135Z AUTO 00000KT 10SM CLR 23/05 A3023 RMK AO2

More Conditions Fewer Conditions

10-Day Weather Forecast

Almanac

Astronomy

Jul. 31, 2014 Rise Set
Actual Time 6:14 AM MDT 8:45 PM MDT
Civil Twilight 5:42 AM MDT 9:17 PM MDT
Nautical Twilight 5:02 AM MDT 9:57 PM MDT
Astronomical Twilight 4:17 AM MDT 10:42 PM MDT
Moon 10:52 AM MDT (7/31) 10:52 PM MDT (7/31)
Length of Visible Light 15h 34m
Length of Day
14h 30m
Tomorrow will be 2m 11s shorter.
Waxing Crescent, 22% of the Moon is Illuminated
Today
Waxing Crescent
Aug 3
First Quarter
Aug 10
Full
Aug 17
Last Quarter
Aug 25
New

Today's Extremes

State Highs State Lows

Community

WunderPhotos

Upload Photos

1,739,490 photos uploaded!

Nearby

Snow Depth

Station Depth Elevation
Willow Creek 6 in 8450 ft
Blind Bull Summit 0 in 8900 ft
Granite Creek 0 in 6770 ft
Loomis Park 0 in 8240 ft
Kendall R.S. 0 in 7740 ft

Earthquake Activity

City Distance Mag. Time & Date
No recent earthquake activity has been reported nearby.
Minimum magnitude displayed is 2.5.

Coastal Water Temperatures

Place Temperature
No Stations Reporting

Nearby Weather Stations

Station Location Temp. Heat Index Dew Point Humidity Wind Precip. Elev Updated Type
Afton, WY 75.3 °F 74 °F -0 °F 5% NW  at  0.0 mph 0.00 in / hr 6312 ft 7:45 PM MDT Normal
LCWY Branch Office, Afton, WY 78.0 °F 78 °F 46 °F 32% WSW  at  0.0 mph 0.00 in / hr 6270 ft 7:22 PM MDT Normal
ITD Georgetown ID , Georgetown, ID 75 °F 77 °F 44 °F 32% SSE  at  8 mph 0.00 in / hr 6283 ft 6:30 PM MDT MADIS

Show More Stations Show Fewer Stations